sensor_id;sensor_type;location;lat;lon;timestamp;temperature;humidity
4425;DHT22;2225;53.568;13.266;2024-01-11T00:01:23;4.00;99.80
4425;DHT22;2225;53.568;13.266;2024-01-11T00:03:50;4.00;99.90
4425;DHT22;2225;53.568;13.266;2024-01-11T00:06:17;4.10;99.80
4425;DHT22;2225;53.568;13.266;2024-01-11T00:08:44;4.10;99.90
4425;DHT22;2225;53.568;13.266;2024-01-11T00:11:11;4.10;99.80
4425;DHT22;2225;53.568;13.266;2024-01-11T00:13:40;4.10;99.90
4425;DHT22;2225;53.568;13.266;2024-01-11T00:16:07;4.10;99.90
4425;DHT22;2225;53.568;13.266;2024-01-11T00:18:34;4.10;99.80
4425;DHT22;2225;53.568;13.266;2024-01-11T00:21:01;4.10;99.80
4425;DHT22;2225;53.568;13.266;2024-01-11T00:23:28;4.10;99.80
4425;DHT22;2225;53.568;13.266;2024-01-11T00:25:55;4.10;99.80
4425;DHT22;2225;53.568;13.266;2024-01-11T00:28:22;4.10;99.80
4425;DHT22;2225;53.568;13.266;2024-01-11T00:30:49;4.10;99.90
4425;DHT22;2225;53.568;13.266;2024-01-11T00:33:16;4.10;99.90
4425;DHT22;2225;53.568;13.266;2024-01-11T00:35:43;4.00;99.90
4425;DHT22;2225;53.568;13.266;2024-01-11T00:38:10;4.00;99.90
4425;DHT22;2225;53.568;13.266;2024-01-11T00:40:37;4.00;99.90
4425;DHT22;2225;53.568;13.266;2024-01-11T00:43:04;4.00;99.90
4425;DHT22;2225;53.568;13.266;2024-01-11T00:45:31;4.00;99.90
4425;DHT22;2225;53.568;13.266;2024-01-11T00:47:58;4.00;99.90
4425;DHT22;2225;53.568;13.266;2024-01-11T00:50:25;4.00;99.90
4425;DHT22;2225;53.568;13.266;2024-01-11T00:52:52;4.00;99.90
4425;DHT22;2225;53.568;13.266;2024-01-11T00:55:19;4.00;99.90
4425;DHT22;2225;53.568;13.266;2024-01-11T00:57:46;4.00;99.90
4425;DHT22;2225;53.568;13.266;2024-01-11T01:00:13;4.00;99.90
4425;DHT22;2225;53.568;13.266;2024-01-11T01:02:41;4.00;99.90
4425;DHT22;2225;53.568;13.266;2024-01-11T01:05:08;4.00;99.90
4425;DHT22;2225;53.568;13.266;2024-01-11T01:07:35;4.00;99.90
4425;DHT22;2225;53.568;13.266;2024-01-11T01:10:02;4.00;99.90
4425;DHT22;2225;53.568;13.266;2024-01-11T01:12:29;4.00;99.90
4425;DHT22;2225;53.568;13.266;2024-01-11T01:14:56;4.00;99.90
4425;DHT22;2225;53.568;13.266;2024-01-11T01:17:23;4.00;99.90
4425;DHT22;2225;53.568;13.266;2024-01-11T01:19:49;4.00;99.90
4425;DHT22;2225;53.568;13.266;2024-01-11T01:22:16;4.00;99.90
4425;DHT22;2225;53.568;13.266;2024-01-11T01:24:43;4.00;99.90
4425;DHT22;2225;53.568;13.266;2024-01-11T01:27:10;4.00;99.90
4425;DHT22;2225;53.568;13.266;2024-01-11T01:29:37;4.00;99.90
4425;DHT22;2225;53.568;13.266;2024-01-11T01:32:05;4.10;99.90
4425;DHT22;2225;53.568;13.266;2024-01-11T01:34:31;4.10;99.90
4425;DHT22;2225;53.568;13.266;2024-01-11T01:36:59;4.10;99.90
4425;DHT22;2225;53.568;13.266;2024-01-11T01:39:25;4.10;99.90
4425;DHT22;2225;53.568;13.266;2024-01-11T01:41:52;4.10;99.90
4425;DHT22;2225;53.568;13.266;2024-01-11T01:44:19;4.10;99.90
4425;DHT22;2225;53.568;13.266;2024-01-11T01:46:47;4.10;99.90
4425;DHT22;2225;53.568;13.266;2024-01-11T01:49:15;4.10;99.90
4425;DHT22;2225;53.568;13.266;2024-01-11T01:51:44;4.10;99.90
4425;DHT22;2225;53.568;13.266;2024-01-11T01:54:12;4.10;99.90
4425;DHT22;2225;53.568;13.266;2024-01-11T01:56:39;4.10;99.90
4425;DHT22;2225;53.568;13.266;2024-01-11T01:59:06;4.10;99.90
4425;DHT22;2225;53.568;13.266;2024-01-11T02:01:33;4.10;99.90
4425;DHT22;2225;53.568;13.266;2024-01-11T02:04:00;4.10;99.90
4425;DHT22;2225;53.568;13.266;2024-01-11T02:06:29;4.10;99.90
4425;DHT22;2225;53.568;13.266;2024-01-11T02:08:59;4.20;99.90
4425;DHT22;2225;53.568;13.266;2024-01-11T02:11:26;4.10;99.90
4425;DHT22;2225;53.568;13.266;2024-01-11T02:13:53;4.10;99.90
4425;DHT22;2225;53.568;13.266;2024-01-11T02:16:20;4.10;99.90
4425;DHT22;2225;53.568;13.266;2024-01-11T02:18:47;4.10;99.90
4425;DHT22;2225;53.568;13.266;2024-01-11T02:21:15;4.10;99.90
4425;DHT22;2225;53.568;13.266;2024-01-11T02:26:21;4.10;99.90
4425;DHT22;2225;53.568;13.266;2024-01-11T02:28:49;4.10;99.90
4425;DHT22;2225;53.568;13.266;2024-01-11T02:31:16;4.10;99.90
4425;DHT22;2225;53.568;13.266;2024-01-11T02:33:43;4.10;99.90
4425;DHT22;2225;53.568;13.266;2024-01-11T02:36:10;4.10;99.90
4425;DHT22;2225;53.568;13.266;2024-01-11T02:38:38;4.10;99.90
4425;DHT22;2225;53.568;13.266;2024-01-11T02:41:08;4.10;99.90
4425;DHT22;2225;53.568;13.266;2024-01-11T02:43:35;4.10;99.90
4425;DHT22;2225;53.568;13.266;2024-01-11T02:46:03;4.10;99.90
4425;DHT22;2225;53.568;13.266;2024-01-11T02:48:30;4.10;99.90
4425;DHT22;2225;53.568;13.266;2024-01-11T02:50:57;4.10;99.90
4425;DHT22;2225;53.568;13.266;2024-01-11T02:53:25;4.10;99.90
4425;DHT22;2225;53.568;13.266;2024-01-11T02:55:52;4.00;99.90
4425;DHT22;2225;53.568;13.266;2024-01-11T02:58:19;4.00;99.90
4425;DHT22;2225;53.568;13.266;2024-01-11T03:00:46;4.00;99.90
4425;DHT22;2225;53.568;13.266;2024-01-11T03:03:13;4.00;99.90
4425;DHT22;2225;53.568;13.266;2024-01-11T03:05:40;4.00;99.90
4425;DHT22;2225;53.568;13.266;2024-01-11T03:08:08;3.90;99.90
4425;DHT22;2225;53.568;13.266;2024-01-11T03:10:37;3.90;99.90
4425;DHT22;2225;53.568;13.266;2024-01-11T03:13:06;3.90;99.90
4425;DHT22;2225;53.568;13.266;2024-01-11T03:15:33;3.90;99.90
4425;DHT22;2225;53.568;13.266;2024-01-11T03:18:00;3.90;99.90
4425;DHT22;2225;53.568;13.266;2024-01-11T03:20:28;3.90;99.90
4425;DHT22;2225;53.568;13.266;2024-01-11T03:22:56;3.90;99.90
4425;DHT22;2225;53.568;13.266;2024-01-11T03:25:23;3.90;99.90
4425;DHT22;2225;53.568;13.266;2024-01-11T03:27:50;3.90;99.90
4425;DHT22;2225;53.568;13.266;2024-01-11T03:30:17;4.00;99.90
4425;DHT22;2225;53.568;13.266;2024-01-11T03:32:44;4.00;99.90
4425;DHT22;2225;53.568;13.266;2024-01-11T03:35:11;4.00;99.90
4425;DHT22;2225;53.568;13.266;2024-01-11T03:37:39;4.00;99.90
4425;DHT22;2225;53.568;13.266;2024-01-11T03:40:06;4.00;99.90
4425;DHT22;2225;53.568;13.266;2024-01-11T03:42:33;4.00;99.90
4425;DHT22;2225;53.568;13.266;2024-01-11T03:45:00;4.00;99.90
4425;DHT22;2225;53.568;13.266;2024-01-11T03:47:27;4.00;99.90
4425;DHT22;2225;53.568;13.266;2024-01-11T03:49:54;4.00;99.90
4425;DHT22;2225;53.568;13.266;2024-01-11T03:52:21;4.00;99.90
4425;DHT22;2225;53.568;13.266;2024-01-11T03:54:48;4.10;99.90
4425;DHT22;2225;53.568;13.266;2024-01-11T03:57:15;4.10;99.90
4425;DHT22;2225;53.568;13.266;2024-01-11T03:59:43;4.00;99.90
4425;DHT22;2225;53.568;13.266;2024-01-11T04:02:11;4.00;99.90
4425;DHT22;2225;53.568;13.266;2024-01-11T04:04:38;4.00;99.90
4425;DHT22;2225;53.568;13.266;2024-01-11T04:07:05;4.10;99.90
4425;DHT22;2225;53.568;13.266;2024-01-11T04:09:32;4.10;99.90
4425;DHT22;2225;53.568;13.266;2024-01-11T04:11:59;4.10;99.90
4425;DHT22;2225;53.568;13.266;2024-01-11T04:14:26;4.20;99.90
4425;DHT22;2225;53.568;13.266;2024-01-11T04:16:53;4.10;99.90
4425;DHT22;2225;53.568;13.266;2024-01-11T04:19:20;4.10;99.90
4425;DHT22;2225;53.568;13.266;2024-01-11T04:21:49;4.10;99.90
4425;DHT22;2225;53.568;13.266;2024-01-11T04:24:16;4.10;99.90
4425;DHT22;2225;53.568;13.266;2024-01-11T04:26:43;4.20;99.90
4425;DHT22;2225;53.568;13.266;2024-01-11T04:29:10;4.10;99.90
4425;DHT22;2225;53.568;13.266;2024-01-11T04:31:37;4.10;99.90
4425;DHT22;2225;53.568;13.266;2024-01-11T04:34:04;4.10;99.90
4425;DHT22;2225;53.568;13.266;2024-01-11T04:36:31;4.10;99.90
4425;DHT22;2225;53.568;13.266;2024-01-11T04:38:58;4.10;99.90
4425;DHT22;2225;53.568;13.266;2024-01-11T04:41:25;4.20;99.90
4425;DHT22;2225;53.568;13.266;2024-01-11T04:43:52;4.20;99.90
4425;DHT22;2225;53.568;13.266;2024-01-11T04:46:22;4.20;99.90
4425;DHT22;2225;53.568;13.266;2024-01-11T04:48:50;4.20;99.90
4425;DHT22;2225;53.568;13.266;2024-01-11T04:51:17;4.30;99.90
4425;DHT22;2225;53.568;13.266;2024-01-11T04:53:45;4.30;99.90
4425;DHT22;2225;53.568;13.266;2024-01-11T04:56:16;4.30;99.90
4425;DHT22;2225;53.568;13.266;2024-01-11T04:58:44;4.30;99.90
4425;DHT22;2225;53.568;13.266;2024-01-11T05:01:16;4.30;99.90
4425;DHT22;2225;53.568;13.266;2024-01-11T05:03:45;4.30;99.90
4425;DHT22;2225;53.568;13.266;2024-01-11T05:06:16;4.30;99.90
4425;DHT22;2225;53.568;13.266;2024-01-11T05:08:49;4.40;99.90
4425;DHT22;2225;53.568;13.266;2024-01-11T05:11:20;4.40;99.90
4425;DHT22;2225;53.568;13.266;2024-01-11T05:13:48;4.40;99.90
4425;DHT22;2225;53.568;13.266;2024-01-11T05:16:18;4.40;99.90
4425;DHT22;2225;53.568;13.266;2024-01-11T05:18:52;4.40;99.90
4425;DHT22;2225;53.568;13.266;2024-01-11T05:21:21;4.40;99.90
4425;DHT22;2225;53.568;13.266;2024-01-11T05:23:48;4.40;99.90
4425;DHT22;2225;53.568;13.266;2024-01-11T05:26:16;4.40;99.90
4425;DHT22;2225;53.568;13.266;2024-01-11T05:28:43;4.40;99.90
4425;DHT22;2225;53.568;13.266;2024-01-11T05:31:12;4.40;99.90
4425;DHT22;2225;53.568;13.266;2024-01-11T05:33:41;4.50;99.90
4425;DHT22;2225;53.568;13.266;2024-01-11T05:36:09;4.40;99.90
4425;DHT22;2225;53.568;13.266;2024-01-11T05:38:38;4.50;99.90
4425;DHT22;2225;53.568;13.266;2024-01-11T05:41:05;4.50;99.90
4425;DHT22;2225;53.568;13.266;2024-01-11T05:43:32;4.50;99.90
4425;DHT22;2225;53.568;13.266;2024-01-11T05:45:59;4.50;99.90
4425;DHT22;2225;53.568;13.266;2024-01-11T05:48:26;4.50;99.90
4425;DHT22;2225;53.568;13.266;2024-01-11T05:50:53;4.50;99.90
4425;DHT22;2225;53.568;13.266;2024-01-11T05:53:20;4.50;99.90
4425;DHT22;2225;53.568;13.266;2024-01-11T05:55:48;4.50;99.90
4425;DHT22;2225;53.568;13.266;2024-01-11T05:58:18;4.50;99.90
4425;DHT22;2225;53.568;13.266;2024-01-11T06:00:45;4.50;99.90
4425;DHT22;2225;53.568;13.266;2024-01-11T06:03:13;4.50;99.90
4425;DHT22;2225;53.568;13.266;2024-01-11T06:05:40;4.50;99.90
4425;DHT22;2225;53.568;13.266;2024-01-11T06:08:07;4.50;99.90
4425;DHT22;2225;53.568;13.266;2024-01-11T06:10:34;4.50;99.90
4425;DHT22;2225;53.568;13.266;2024-01-11T06:13:01;4.50;99.90
4425;DHT22;2225;53.568;13.266;2024-01-11T06:15:28;4.50;99.90
4425;DHT22;2225;53.568;13.266;2024-01-11T06:17:55;4.50;99.90
4425;DHT22;2225;53.568;13.266;2024-01-11T06:20:22;4.50;99.90
4425;DHT22;2225;53.568;13.266;2024-01-11T06:22:49;4.50;99.90
4425;DHT22;2225;53.568;13.266;2024-01-11T06:25:16;4.50;99.90
4425;DHT22;2225;53.568;13.266;2024-01-11T06:27:43;4.50;99.90
4425;DHT22;2225;53.568;13.266;2024-01-11T06:30:11;4.50;99.90
4425;DHT22;2225;53.568;13.266;2024-01-11T06:32:38;4.50;99.90
4425;DHT22;2225;53.568;13.266;2024-01-11T06:35:06;4.50;99.90
4425;DHT22;2225;53.568;13.266;2024-01-11T06:37:33;4.50;99.90
4425;DHT22;2225;53.568;13.266;2024-01-11T06:40:00;4.50;99.90
4425;DHT22;2225;53.568;13.266;2024-01-11T06:42:27;4.50;99.90
4425;DHT22;2225;53.568;13.266;2024-01-11T06:44:54;4.50;99.90
4425;DHT22;2225;53.568;13.266;2024-01-11T06:47:21;4.60;99.90
4425;DHT22;2225;53.568;13.266;2024-01-11T06:49:48;4.60;99.90
4425;DHT22;2225;53.568;13.266;2024-01-11T06:52:15;4.60;99.90
4425;DHT22;2225;53.568;13.266;2024-01-11T06:54:42;4.60;99.90
4425;DHT22;2225;53.568;13.266;2024-01-11T06:57:09;4.60;99.90
4425;DHT22;2225;53.568;13.266;2024-01-11T06:59:36;4.60;99.90
4425;DHT22;2225;53.568;13.266;2024-01-11T07:02:04;4.60;99.90
4425;DHT22;2225;53.568;13.266;2024-01-11T07:04:31;4.60;99.90
4425;DHT22;2225;53.568;13.266;2024-01-11T07:07:00;4.60;99.90
4425;DHT22;2225;53.568;13.266;2024-01-11T07:09:27;4.50;99.90
4425;DHT22;2225;53.568;13.266;2024-01-11T07:11:54;4.50;99.90
4425;DHT22;2225;53.568;13.266;2024-01-11T07:14:21;4.60;99.90
4425;DHT22;2225;53.568;13.266;2024-01-11T07:16:48;4.60;99.90
4425;DHT22;2225;53.568;13.266;2024-01-11T07:19:16;4.60;99.90
4425;DHT22;2225;53.568;13.266;2024-01-11T07:21:43;4.60;99.90
4425;DHT22;2225;53.568;13.266;2024-01-11T07:24:10;4.60;99.90
4425;DHT22;2225;53.568;13.266;2024-01-11T07:26:37;4.60;99.90
4425;DHT22;2225;53.568;13.266;2024-01-11T07:29:05;4.60;99.90
4425;DHT22;2225;53.568;13.266;2024-01-11T07:31:31;4.60;99.90
4425;DHT22;2225;53.568;13.266;2024-01-11T07:33:59;4.60;99.90
4425;DHT22;2225;53.568;13.266;2024-01-11T07:36:26;4.60;99.90
4425;DHT22;2225;53.568;13.266;2024-01-11T07:38:53;4.60;99.90
4425;DHT22;2225;53.568;13.266;2024-01-11T07:41:21;4.70;99.90
4425;DHT22;2225;53.568;13.266;2024-01-11T07:43:49;4.70;99.90
4425;DHT22;2225;53.568;13.266;2024-01-11T07:46:20;4.70;99.90
4425;DHT22;2225;53.568;13.266;2024-01-11T07:49:05;4.70;99.90
4425;DHT22;2225;53.568;13.266;2024-01-11T07:51:33;4.70;99.90
4425;DHT22;2225;53.568;13.266;2024-01-11T07:54:01;4.70;99.90
4425;DHT22;2225;53.568;13.266;2024-01-11T07:56:29;4.70;99.90
4425;DHT22;2225;53.568;13.266;2024-01-11T07:58:56;4.70;99.90
4425;DHT22;2225;53.568;13.266;2024-01-11T08:01:23;4.70;99.90
4425;DHT22;2225;53.568;13.266;2024-01-11T08:03:51;4.70;99.90
4425;DHT22;2225;53.568;13.266;2024-01-11T08:06:19;4.70;99.90
4425;DHT22;2225;53.568;13.266;2024-01-11T08:08:46;4.70;99.90
4425;DHT22;2225;53.568;13.266;2024-01-11T08:11:18;4.70;99.90
4425;DHT22;2225;53.568;13.266;2024-01-11T08:13:45;4.70;99.90
4425;DHT22;2225;53.568;13.266;2024-01-11T08:16:16;4.70;99.90
4425;DHT22;2225;53.568;13.266;2024-01-11T08:18:44;4.70;99.90
4425;DHT22;2225;53.568;13.266;2024-01-11T08:21:12;4.70;99.90
4425;DHT22;2225;53.568;13.266;2024-01-11T08:23:40;4.70;99.90
4425;DHT22;2225;53.568;13.266;2024-01-11T08:26:12;4.70;99.90
4425;DHT22;2225;53.568;13.266;2024-01-11T08:28:41;4.70;99.90
4425;DHT22;2225;53.568;13.266;2024-01-11T08:31:08;4.70;99.90
4425;DHT22;2225;53.568;13.266;2024-01-11T08:33:36;4.80;99.90
4425;DHT22;2225;53.568;13.266;2024-01-11T08:36:05;4.70;99.90
4425;DHT22;2225;53.568;13.266;2024-01-11T08:38:33;4.70;99.90
4425;DHT22;2225;53.568;13.266;2024-01-11T08:41:02;4.70;99.90
4425;DHT22;2225;53.568;13.266;2024-01-11T08:43:30;4.70;99.90
4425;DHT22;2225;53.568;13.266;2024-01-11T08:45:57;4.70;99.90
4425;DHT22;2225;53.568;13.266;2024-01-11T08:48:24;4.70;99.90
4425;DHT22;2225;53.568;13.266;2024-01-11T08:50:51;4.80;99.90
4425;DHT22;2225;53.568;13.266;2024-01-11T08:53:18;4.80;99.90
4425;DHT22;2225;53.568;13.266;2024-01-11T08:55:46;4.90;99.90
4425;DHT22;2225;53.568;13.266;2024-01-11T08:58:14;4.90;99.90
4425;DHT22;2225;53.568;13.266;2024-01-11T09:00:40;4.90;99.90
4425;DHT22;2225;53.568;13.266;2024-01-11T09:03:07;4.90;99.90
4425;DHT22;2225;53.568;13.266;2024-01-11T09:05:35;5.00;99.90
4425;DHT22;2225;53.568;13.266;2024-01-11T09:08:02;5.00;99.90
4425;DHT22;2225;53.568;13.266;2024-01-11T09:10:30;5.00;99.90
4425;DHT22;2225;53.568;13.266;2024-01-11T09:12:57;5.10;99.90
4425;DHT22;2225;53.568;13.266;2024-01-11T09:15:24;5.10;99.90
4425;DHT22;2225;53.568;13.266;2024-01-11T09:17:51;5.10;99.90
4425;DHT22;2225;53.568;13.266;2024-01-11T09:20:18;5.10;99.90
4425;DHT22;2225;53.568;13.266;2024-01-11T09:22:45;5.10;99.90
4425;DHT22;2225;53.568;13.266;2024-01-11T09:25:12;5.20;99.90
4425;DHT22;2225;53.568;13.266;2024-01-11T09:27:39;5.20;99.90
4425;DHT22;2225;53.568;13.266;2024-01-11T09:30:07;5.20;99.90
4425;DHT22;2225;53.568;13.266;2024-01-11T09:32:35;5.30;99.90
4425;DHT22;2225;53.568;13.266;2024-01-11T09:35:03;5.30;99.90
4425;DHT22;2225;53.568;13.266;2024-01-11T09:37:31;5.40;99.90
4425;DHT22;2225;53.568;13.266;2024-01-11T09:39:58;5.40;99.90
4425;DHT22;2225;53.568;13.266;2024-01-11T09:42:27;5.40;99.90
4425;DHT22;2225;53.568;13.266;2024-01-11T09:44:56;5.40;99.90
4425;DHT22;2225;53.568;13.266;2024-01-11T09:47:24;5.40;99.90
4425;DHT22;2225;53.568;13.266;2024-01-11T09:49:54;5.40;99.90
4425;DHT22;2225;53.568;13.266;2024-01-11T09:52:22;5.40;99.90
4425;DHT22;2225;53.568;13.266;2024-01-11T09:54:52;5.40;99.90
4425;DHT22;2225;53.568;13.266;2024-01-11T09:57:24;5.30;99.90
4425;DHT22;2225;53.568;13.266;2024-01-11T09:59:54;5.30;99.90
4425;DHT22;2225;53.568;13.266;2024-01-11T10:02:23;5.40;99.90
4425;DHT22;2225;53.568;13.266;2024-01-11T10:04:53;5.30;99.90
4425;DHT22;2225;53.568;13.266;2024-01-11T10:07:24;5.30;99.90
4425;DHT22;2225;53.568;13.266;2024-01-11T10:09:53;5.40;99.90
4425;DHT22;2225;53.568;13.266;2024-01-11T10:12:21;5.30;99.90
4425;DHT22;2225;53.568;13.266;2024-01-11T10:14:51;5.30;99.90
4425;DHT22;2225;53.568;13.266;2024-01-11T10:17:18;5.30;99.90
4425;DHT22;2225;53.568;13.266;2024-01-11T10:19:53;5.40;99.90
4425;DHT22;2225;53.568;13.266;2024-01-11T10:22:20;5.40;99.90
4425;DHT22;2225;53.568;13.266;2024-01-11T10:25:11;5.40;99.90
4425;DHT22;2225;53.568;13.266;2024-01-11T10:27:45;5.40;99.90
4425;DHT22;2225;53.568;13.266;2024-01-11T10:30:13;5.40;99.90
4425;DHT22;2225;53.568;13.266;2024-01-11T10:32:44;5.40;99.90
4425;DHT22;2225;53.568;13.266;2024-01-11T10:35:11;5.40;99.90
4425;DHT22;2225;53.568;13.266;2024-01-11T10:37:38;5.50;99.90
4425;DHT22;2225;53.568;13.266;2024-01-11T10:40:07;5.50;99.90
4425;DHT22;2225;53.568;13.266;2024-01-11T10:42:45;5.50;99.90
4425;DHT22;2225;53.568;13.266;2024-01-11T10:45:17;5.50;99.90
4425;DHT22;2225;53.568;13.266;2024-01-11T10:47:56;5.60;99.90
4425;DHT22;2225;53.568;13.266;2024-01-11T10:50:33;5.70;99.90
4425;DHT22;2225;53.568;13.266;2024-01-11T10:56:14;5.70;99.90
4425;DHT22;2225;53.568;13.266;2024-01-11T10:58:45;5.80;99.90
4425;DHT22;2225;53.568;13.266;2024-01-11T11:01:13;5.80;99.90
4425;DHT22;2225;53.568;13.266;2024-01-11T11:03:43;5.80;99.90
4425;DHT22;2225;53.568;13.266;2024-01-11T11:06:11;5.90;99.70
4425;DHT22;2225;53.568;13.266;2024-01-11T11:08:40;5.90;99.50
4425;DHT22;2225;53.568;13.266;2024-01-11T11:11:07;5.90;99.50
4425;DHT22;2225;53.568;13.266;2024-01-11T11:13:35;5.90;99.60
4425;DHT22;2225;53.568;13.266;2024-01-11T11:16:02;6.00;99.40
4425;DHT22;2225;53.568;13.266;2024-01-11T11:18:32;6.00;99.40
4425;DHT22;2225;53.568;13.266;2024-01-11T11:21:10;6.00;99.30
4425;DHT22;2225;53.568;13.266;2024-01-11T11:23:38;6.00;99.20
4425;DHT22;2225;53.568;13.266;2024-01-11T11:26:06;6.00;99.30
4425;DHT22;2225;53.568;13.266;2024-01-11T11:28:36;6.00;99.10
4425;DHT22;2225;53.568;13.266;2024-01-11T11:31:03;6.00;99.20
4425;DHT22;2225;53.568;13.266;2024-01-11T11:33:30;6.00;99.10
4425;DHT22;2225;53.568;13.266;2024-01-11T11:35:59;6.00;99.20
4425;DHT22;2225;53.568;13.266;2024-01-11T11:38:27;6.00;99.30
4425;DHT22;2225;53.568;13.266;2024-01-11T11:40:57;6.00;99.30
4425;DHT22;2225;53.568;13.266;2024-01-11T11:43:27;6.10;99.30
4425;DHT22;2225;53.568;13.266;2024-01-11T11:45:54;6.10;99.30
4425;DHT22;2225;53.568;13.266;2024-01-11T11:51:06;6.10;99.10
4425;DHT22;2225;53.568;13.266;2024-01-11T11:53:33;6.10;99.20
4425;DHT22;2225;53.568;13.266;2024-01-11T11:56:01;6.10;99.20
4425;DHT22;2225;53.568;13.266;2024-01-11T11:58:29;6.20;99.20
4425;DHT22;2225;53.568;13.266;2024-01-11T12:00:58;6.20;99.20
4425;DHT22;2225;53.568;13.266;2024-01-11T12:03:30;6.20;99.20
4425;DHT22;2225;53.568;13.266;2024-01-11T12:05:59;6.20;99.10
4425;DHT22;2225;53.568;13.266;2024-01-11T12:08:26;6.30;99.20
4425;DHT22;2225;53.568;13.266;2024-01-11T12:10:54;6.30;99.20
4425;DHT22;2225;53.568;13.266;2024-01-11T12:13:21;6.30;99.00
4425;DHT22;2225;53.568;13.266;2024-01-11T12:15:48;6.30;99.10
4425;DHT22;2225;53.568;13.266;2024-01-11T12:18:15;6.30;99.00
4425;DHT22;2225;53.568;13.266;2024-01-11T12:20:42;6.30;99.00
4425;DHT22;2225;53.568;13.266;2024-01-11T12:23:09;6.40;99.00
4425;DHT22;2225;53.568;13.266;2024-01-11T12:25:36;6.40;99.00
4425;DHT22;2225;53.568;13.266;2024-01-11T12:28:05;6.40;98.90
4425;DHT22;2225;53.568;13.266;2024-01-11T12:30:32;6.40;98.90
4425;DHT22;2225;53.568;13.266;2024-01-11T12:33:00;6.40;98.90
4425;DHT22;2225;53.568;13.266;2024-01-11T12:35:30;6.30;98.60
4425;DHT22;2225;53.568;13.266;2024-01-11T12:38:04;6.40;98.80
4425;DHT22;2225;53.568;13.266;2024-01-11T12:40:37;6.40;98.90
4425;DHT22;2225;53.568;13.266;2024-01-11T12:43:05;6.40;99.00
4425;DHT22;2225;53.568;13.266;2024-01-11T12:45:37;6.30;98.90
4425;DHT22;2225;53.568;13.266;2024-01-11T12:48:07;6.40;99.00
4425;DHT22;2225;53.568;13.266;2024-01-11T12:50:35;6.40;99.00
4425;DHT22;2225;53.568;13.266;2024-01-11T12:53:15;6.40;98.90
4425;DHT22;2225;53.568;13.266;2024-01-11T12:55:46;6.40;98.90
4425;DHT22;2225;53.568;13.266;2024-01-11T12:58:35;6.40;98.80
4425;DHT22;2225;53.568;13.266;2024-01-11T13:01:04;6.50;98.90
4425;DHT22;2225;53.568;13.266;2024-01-11T13:03:31;6.50;98.80
4425;DHT22;2225;53.568;13.266;2024-01-11T13:05:58;6.50;98.80
4425;DHT22;2225;53.568;13.266;2024-01-11T13:08:25;6.50;98.80
4425;DHT22;2225;53.568;13.266;2024-01-11T13:10:53;6.50;98.70
4425;DHT22;2225;53.568;13.266;2024-01-11T13:13:20;6.50;98.60
4425;DHT22;2225;53.568;13.266;2024-01-11T13:15:49;6.50;98.80
4425;DHT22;2225;53.568;13.266;2024-01-11T13:18:17;6.50;99.10
4425;DHT22;2225;53.568;13.266;2024-01-11T13:20:44;6.50;98.70
4425;DHT22;2225;53.568;13.266;2024-01-11T13:23:18;6.50;99.10
4425;DHT22;2225;53.568;13.266;2024-01-11T13:25:48;6.60;98.70
4425;DHT22;2225;53.568;13.266;2024-01-11T13:28:16;6.60;98.70
4425;DHT22;2225;53.568;13.266;2024-01-11T13:30:46;6.60;98.60
4425;DHT22;2225;53.568;13.266;2024-01-11T13:33:13;6.60;98.60
4425;DHT22;2225;53.568;13.266;2024-01-11T13:35:43;6.60;98.40
4425;DHT22;2225;53.568;13.266;2024-01-11T13:38:11;6.60;98.70
4425;DHT22;2225;53.568;13.266;2024-01-11T13:40:39;6.60;98.20
4425;DHT22;2225;53.568;13.266;2024-01-11T13:43:07;6.60;98.30
4425;DHT22;2225;53.568;13.266;2024-01-11T13:45:34;6.60;98.30
4425;DHT22;2225;53.568;13.266;2024-01-11T13:48:04;6.60;98.00
4425;DHT22;2225;53.568;13.266;2024-01-11T13:50:32;6.60;98.10
4425;DHT22;2225;53.568;13.266;2024-01-11T13:53:00;6.50;98.00
4425;DHT22;2225;53.568;13.266;2024-01-11T13:55:27;6.50;98.10
4425;DHT22;2225;53.568;13.266;2024-01-11T13:57:56;6.50;98.10
4425;DHT22;2225;53.568;13.266;2024-01-11T14:00:23;6.50;98.20
4425;DHT22;2225;53.568;13.266;2024-01-11T14:02:50;6.50;98.20
4425;DHT22;2225;53.568;13.266;2024-01-11T14:05:17;6.50;98.00
4425;DHT22;2225;53.568;13.266;2024-01-11T14:07:45;6.50;98.20
4425;DHT22;2225;53.568;13.266;2024-01-11T14:10:14;6.50;98.20
4425;DHT22;2225;53.568;13.266;2024-01-11T14:12:41;6.40;98.10
4425;DHT22;2225;53.568;13.266;2024-01-11T14:15:09;6.40;98.20
4425;DHT22;2225;53.568;13.266;2024-01-11T14:17:40;6.30;98.20
4425;DHT22;2225;53.568;13.266;2024-01-11T14:20:08;6.30;98.30
4425;DHT22;2225;53.568;13.266;2024-01-11T14:22:40;6.30;98.30
4425;DHT22;2225;53.568;13.266;2024-01-11T14:25:08;6.40;98.30
4425;DHT22;2225;53.568;13.266;2024-01-11T14:27:38;6.40;98.30
4425;DHT22;2225;53.568;13.266;2024-01-11T14:30:06;6.40;98.30
4425;DHT22;2225;53.568;13.266;2024-01-11T14:32:34;6.40;98.30
4425;DHT22;2225;53.568;13.266;2024-01-11T14:35:05;6.30;98.30
4425;DHT22;2225;53.568;13.266;2024-01-11T14:37:34;6.30;98.30
4425;DHT22;2225;53.568;13.266;2024-01-11T14:40:02;6.30;98.40
4425;DHT22;2225;53.568;13.266;2024-01-11T14:42:29;6.30;98.40
4425;DHT22;2225;53.568;13.266;2024-01-11T14:44:56;6.40;98.40
4425;DHT22;2225;53.568;13.266;2024-01-11T14:47:23;6.40;98.40
4425;DHT22;2225;53.568;13.266;2024-01-11T14:49:51;6.40;98.40
4425;DHT22;2225;53.568;13.266;2024-01-11T14:52:18;6.40;98.30
4425;DHT22;2225;53.568;13.266;2024-01-11T14:54:47;6.40;98.30
4425;DHT22;2225;53.568;13.266;2024-01-11T14:57:15;6.40;98.30
4425;DHT22;2225;53.568;13.266;2024-01-11T14:59:43;6.40;98.30
4425;DHT22;2225;53.568;13.266;2024-01-11T15:02:10;6.40;98.30
4425;DHT22;2225;53.568;13.266;2024-01-11T15:04:38;6.40;98.40
4425;DHT22;2225;53.568;13.266;2024-01-11T15:07:05;6.40;98.40
4425;DHT22;2225;53.568;13.266;2024-01-11T15:09:34;6.40;98.30
4425;DHT22;2225;53.568;13.266;2024-01-11T15:12:05;6.40;98.40
4425;DHT22;2225;53.568;13.266;2024-01-11T15:14:32;6.40;98.40
4425;DHT22;2225;53.568;13.266;2024-01-11T15:16:59;6.40;98.40
4425;DHT22;2225;53.568;13.266;2024-01-11T15:19:26;6.40;98.40
4425;DHT22;2225;53.568;13.266;2024-01-11T15:21:53;6.40;98.40
4425;DHT22;2225;53.568;13.266;2024-01-11T15:24:20;6.40;98.40
4425;DHT22;2225;53.568;13.266;2024-01-11T15:26:47;6.40;98.40
4425;DHT22;2225;53.568;13.266;2024-01-11T15:29:16;6.40;98.40
4425;DHT22;2225;53.568;13.266;2024-01-11T15:31:44;6.40;98.50
4425;DHT22;2225;53.568;13.266;2024-01-11T15:34:16;6.40;98.50
4425;DHT22;2225;53.568;13.266;2024-01-11T15:36:43;6.40;98.40
4425;DHT22;2225;53.568;13.266;2024-01-11T15:39:10;6.40;98.40
4425;DHT22;2225;53.568;13.266;2024-01-11T15:41:55;6.40;98.50
4425;DHT22;2225;53.568;13.266;2024-01-11T15:44:28;6.40;98.50
4425;DHT22;2225;53.568;13.266;2024-01-11T15:46:56;6.40;98.60
4425;DHT22;2225;53.568;13.266;2024-01-11T15:49:23;6.40;98.60
4425;DHT22;2225;53.568;13.266;2024-01-11T15:51:51;6.40;98.60
4425;DHT22;2225;53.568;13.266;2024-01-11T15:54:18;6.40;98.60
4425;DHT22;2225;53.568;13.266;2024-01-11T15:56:47;6.40;98.90
4425;DHT22;2225;53.568;13.266;2024-01-11T15:59:15;6.30;98.60
4425;DHT22;2225;53.568;13.266;2024-01-11T16:01:42;6.30;98.70
4425;DHT22;2225;53.568;13.266;2024-01-11T16:04:26;6.30;98.70
4425;DHT22;2225;53.568;13.266;2024-01-11T16:06:53;6.30;98.80
4425;DHT22;2225;53.568;13.266;2024-01-11T16:09:22;6.30;98.80
4425;DHT22;2225;53.568;13.266;2024-01-11T16:11:49;6.30;98.80
4425;DHT22;2225;53.568;13.266;2024-01-11T16:14:17;6.30;98.80
4425;DHT22;2225;53.568;13.266;2024-01-11T16:16:44;6.30;98.70